Latest Weather Observations for Perth Airport

IDW60801

Issued at 12:05 pm WST Monday 24 November 2014 (issued every 30 minutes, with the page automatically refreshed every 10 minutes)

About weather observations | Map of weather stations | Latest weather observations for WA | Other Formats
Station Details ID: 009021 Name: PERTH AIRPORT Lat: -31.93 Lon: 115.98 Height: 15.4 m
Data from the previous 72 hours. | See also: Recent months at Perth Airport
Date/Time
WST
Temp
°C
App
Temp
°C
Dew
Point
Rel
Hum
%
Delta-T
°C
Wind Press
QNH
hPa
Press
MSL
hPa
Rain
since 9 am
mm
Dir
 
Spd
km/h
Gust
km/h
Spd
kts
Gust
kts
24/12:00pm 24.1 20.4 4.2 27 9.8 ESE 13 22 7 12 1020.0 1020.0 0.0
24/11:30am 23.1 18.3 4.4 29 9.2 ENE 19 32 10 17 1020.5 - 0.0
24/11:00am 22.9 19.3 4.9 31 8.9 ESE 13 24 7 13 1020.9 - 0.0
24/10:30am 21.6 17.2 4.9 33 8.2 E 17 28 9 15 1021.3 - 0.0
24/10:00am 20.3 13.3 4.0 34 7.8 ENE 30 35 16 19 1021.5 - 0.0
24/09:30am 20.0 14.5 3.8 34 7.7 ESE 22 30 12 16 1021.7 - 0.0
24/09:00am 18.9 12.6 3.8 36 7.1 ESE 26 32 14 17 1022.2 1022.2 0.0
24/08:30am 17.7 12.2 4.0 40 6.4 E 22 39 12 21 1022.4 - 0.0
24/08:00am 16.8 12.4 4.7 44 5.7 ESE 17 22 9 12 1022.5 - 0.0
24/07:30am 15.2 9.7 4.1 47 5.1 E 22 33 12 18 1022.4 - 0.0
24/07:00am 14.6 9.6 4.4 50 4.7 E 20 30 11 16 1022.4 - 0.0
24/06:30am 14.1 9.2 4.3 51 4.5 E 19 28 10 15 1022.3 - 0.0
24/06:00am 13.6 9.9 4.4 53 4.2 ESE 13 24 7 13 1022.3 1022.3 0.0
24/05:30am 12.6 7.7 3.9 55 3.9 E 19 28 10 15 1022.0 - 0.0
24/05:00am 12.6 7.1 4.2 56 3.8 ESE 22 32 12 17 1021.7 - 0.0
24/04:30am 13.3 8.6 3.2 50 4.5 SE 17 26 9 14 1021.3 - 0.0
24/04:00am 13.2 8.0 3.6 52 4.3 SE 20 30 11 16 1021.0 - 0.0
24/03:30am 13.1 8.9 4.0 54 4.1 S 15 20 8 11 1021.1 - 0.0
24/03:00am 13.1 8.9 4.0 54 4.1 SSE 15 19 8 10 1020.8 1020.8 0.0
24/02:30am 12.8 8.8 4.7 58 3.7 SE 15 22 8 12 1020.7 - 0.0
24/02:00am 12.8 8.5 5.2 60 3.5 S 17 22 9 12 1020.8 - 0.0
24/01:30am 12.5 8.4 6.1 65 3.0 SSW 17 22 9 12 1020.7 - 0.0
24/01:00am 12.4 8.4 6.5 67 2.8 S 17 24 9 13 1020.7 - 0.0
24/12:30am 12.8 8.4 6.5 65 3.0 S 19 24 10 13 1020.5 - 0.0
24/12:00am 13.5 8.5 6.4 62 3.4 S 22 28 12 15 1020.5 1020.5 0.0
 
Date/Time
WST
Temp
°C
App
Temp
°C
Dew
Point
Rel
Hum
%
Delta-T
°C
Wind Press
QNH
hPa
Press
MSL
hPa
Rain
since 9 am
mm
Dir
 
Spd
km/h
Gust
km/h
Spd
kts
Gust
kts
23/11:30pm 14.0 8.6 6.5 60 3.6 S 24 32 13 17 1020.4 - 0.0
23/11:00pm 14.8 9.1 6.5 57 4.0 S 26 33 14 18 1020.4 - 0.0
23/10:30pm 15.5 9.5 6.9 56 4.2 SSW 28 35 15 19 1020.3 - 0.0
23/10:00pm 16.1 10.7 7.9 58 4.1 S 26 35 14 19 1020.1 - 0.0
23/09:30pm 16.6 13.1 8.8 60 4.0 SSW 17 22 9 12 1020.0 - 0.0
23/09:00pm 16.8 13.4 9.0 60 4.0 SSW 17 22 9 12 1019.8 1019.8 0.0
23/08:30pm 17.1 13.0 8.7 57 4.3 SSW 20 26 11 14 1019.4 - 0.0
23/08:00pm 17.3 12.8 8.7 57 4.4 SSW 22 28 12 15 1019.2 - 0.0
23/07:30pm 17.5 13.0 8.5 55 4.6 SSW 22 30 12 16 1018.8 - 0.0
23/07:00pm 17.9 12.2 8.3 53 4.9 SSW 28 37 15 20 1018.5 - 0.0
23/06:30pm 18.8 12.9 7.3 47 5.8 SW 28 37 15 20 1018.0 - 0.0
23/06:00pm 19.6 13.1 6.6 42 6.5 SW 30 37 16 20 1017.5 1017.5 0.0
23/05:30pm 20.0 13.4 7.7 45 6.3 SW 32 43 17 23 1017.2 - 0.0
23/05:07pm 20.4 14.1 7.5 43 6.6 SW 30 48 16 26 1017.1 - 0.0
23/05:00pm 20.5 13.9 7.7 43 6.6 SW 32 43 17 23 1017.1 - 0.0
23/04:30pm 20.7 14.0 7.5 42 6.8 SW 32 41 17 22 1016.8 - 0.0
23/04:00pm 21.4 15.2 7.7 41 7.1 SW 30 39 16 21 1016.7 - 0.0
23/03:30pm 21.5 14.9 7.6 40 7.2 SW 32 43 17 23 1016.6 - 0.0
23/03:00pm 21.6 15.4 8.0 41 7.1 WSW 30 39 16 21 1016.4 1016.4 0.0
23/02:30pm 22.5 17.2 8.3 40 7.5 WSW 26 35 14 19 1016.6 - 0.0
23/02:00pm 22.5 17.3 8.8 41 7.3 WSW 26 35 14 19 1016.7 - 0.0
23/01:30pm 21.9 16.4 9.2 44 6.8 W 28 37 15 20 1016.9 - 0.0
23/01:00pm 21.7 15.9 8.1 41 7.1 W 28 43 15 23 1016.9 - 0.0
23/12:30pm 21.5 16.9 8.3 42 6.9 WSW 22 32 12 17 1017.2 - 0.0
23/12:00pm 21.6 17.2 9.0 44 6.7 WSW 22 32 12 17 1017.4 1017.4 0.0
23/11:30am 21.5 16.7 8.8 44 6.7 WSW 24 32 13 17 1017.4 - 0.0
23/11:00am 21.3 15.3 8.8 44 6.6 SSW 30 35 16 19 1017.5 - 0.0
23/10:30am 20.9 16.1 8.7 45 6.4 SSW 24 33 13 18 1017.6 - 0.0
23/10:00am 20.5 14.5 8.7 46 6.2 WSW 30 37 16 20 1017.4 - 0.0
23/09:30am 20.2 16.0 9.7 51 5.6 SSW 22 35 12 19 1017.4 - 0.0
23/09:00am 18.6 13.1 10.6 59 4.3 SSW 30 37 16 20 1017.6 1017.6 0.0
23/08:30am 20.0 16.9 10.4 54 5.2 WSW 17 20 9 11 1017.3 - 0.0
23/08:00am 18.2 13.9 10.8 62 4.0 S 24 32 13 17 1017.5 - 0.0
23/07:30am 17.9 12.0 10.6 62 3.9 SSW 32 39 17 21 1017.1 - 0.0
23/07:00am 18.2 13.4 8.7 54 4.9 SSW 24 33 13 18 1016.6 - 0.0
23/06:30am 16.9 14.5 8.7 58 4.2 SW 11 24 6 13 1016.3 - 0.0
23/06:00am 14.1 12.2 9.2 72 2.5 SW 9 11 5 6 1015.9 1015.9 0.0
23/05:30am 14.9 12.9 8.6 66 3.2 SW 9 11 5 6 1015.5 - 0.0
23/05:00am 15.1 13.1 8.6 65 3.3 S 9 11 5 6 1015.3 - 0.0
23/04:30am 16.1 13.4 7.2 55 4.4 SW 11 13 6 7 1015.1 - 0.0
23/04:00am 17.1 13.1 6.5 49 5.2 SSW 17 22 9 12 1014.8 - 0.0
23/03:30am 17.0 13.5 8.9 59 4.2 SSW 17 24 9 13 1014.7 - 0.0
23/03:00am 17.3 13.0 9.2 59 4.2 SW 22 32 12 17 1014.7 1014.7 0.0
23/02:30am 17.0 13.5 7.2 52 4.9 SW 15 20 8 11 1014.6 - 0.0
23/02:00am 16.5 13.0 8.7 60 4.0 SW 17 22 9 12 1014.5 - 0.0
23/01:30am 17.5 12.3 8.8 56 4.5 SSW 26 33 14 18 1014.6 - 0.0
23/01:00am 17.5 13.6 9.5 59 4.2 SSW 20 28 11 15 1014.8 - 0.0
23/12:30am 17.6 14.0 10.0 61 4.0 SSW 19 30 10 16 1014.9 - 0.0
23/12:00am 17.4 15.2 10.9 65 3.5 SSW 13 17 7 9 1015.0 1015.0 0.0
 
Date/Time
WST
Temp
°C
App
Temp
°C
Dew
Point
Rel
Hum
%
Delta-T
°C
Wind Press
QNH
hPa
Press
MSL
hPa
Rain
since 9 am
mm
Dir
 
Spd
km/h
Gust
km/h
Spd
kts
Gust
kts
22/11:30pm 17.5 14.7 11.2 66 3.4 SSW 17 26 9 14 1015.2 - 0.0
22/11:00pm 16.3 15.3 13.3 82 1.7 SSW 11 13 6 7 1015.3 - 0.0
22/10:30pm 16.6 15.9 13.2 80 1.9 SSW 9 15 5 8 1015.6 - 0.0
22/10:00pm 16.5 15.7 12.9 79 2.0 SSW 9 11 5 6 1015.7 - 0.0
22/09:30pm 16.4 15.2 12.8 79 2.0 SSW 11 13 6 7 1015.6 - 0.0
22/09:00pm 16.7 15.0 12.5 76 2.3 SSW 13 15 7 8 1015.5 1015.5 0.0
22/08:30pm 17.2 14.1 12.3 73 2.7 SSW 20 26 11 14 1015.5 - 0.0
22/08:00pm 17.1 14.5 12.0 72 2.8 SW 17 22 9 12 1015.3 - 0.0
22/07:30pm 17.5 13.1 11.8 69 3.1 SW 26 32 14 17 1015.1 - 0.0
22/07:00pm 17.9 13.9 11.9 68 3.3 SW 24 30 13 16 1015.0 - 0.0
22/06:30pm 18.7 14.0 10.5 59 4.4 SW 26 33 14 18 1014.7 - 0.0
22/06:00pm 19.8 16.0 11.2 57 4.7 SW 22 32 12 17 1014.4 1014.4 0.0
22/05:30pm 20.4 16.5 10.9 54 5.2 WSW 22 33 12 18 1014.3 - 0.0
22/05:00pm 20.4 15.6 8.8 47 6.1 W 24 30 13 16 1014.2 - 0.0
22/04:30pm 20.8 15.1 8.4 45 6.5 WSW 28 41 15 22 1014.2 - 0.0
22/04:00pm 21.0 15.7 8.4 44 6.6 WSW 26 37 14 20 1014.2 - 0.0
22/03:30pm 21.2 16.4 8.9 45 6.5 WSW 24 35 13 19 1014.1 - 0.0
22/03:00pm 21.3 15.8 9.1 45 6.5 WSW 28 33 15 18 1013.8 1013.8 0.0
22/02:30pm 22.0 16.8 8.8 43 7.0 W 26 37 14 20 1013.9 - 0.0
22/02:00pm 22.3 17.6 9.2 43 7.0 W 24 30 13 16 1014.0 - 0.0
22/01:30pm 22.2 18.2 9.1 43 7.0 WSW 20 32 11 17 1013.9 - 0.0
22/01:00pm 22.2 17.8 9.1 43 7.0 WSW 22 32 12 17 1014.0 - 0.0
22/12:30pm 22.1 18.0 8.7 42 7.1 W 20 28 11 15 1014.1 - 0.0
22/12:00pm 21.5 17.3 9.6 46 6.4 WSW 22 32 12 17 1014.1 1014.1 0.0
22/11:30am 21.6 17.4 9.7 46 6.4 SW 22 30 12 16 1014.1 - 0.0
22/11:00am 21.8 18.0 9.8 46 6.5 WSW 20 28 11 15 1014.1 - 0.0
22/10:30am 20.4 17.5 10.9 54 5.2 SW 17 26 9 14 1014.2 - 0.0
22/10:00am 20.1 17.4 10.5 54 5.2 WSW 15 22 8 12 1014.3 - 0.0
22/09:30am 19.2 16.0 10.0 55 4.9 WSW 17 22 9 12 1014.3 - 0.0
22/09:00am 19.0 16.6 10.2 56 4.7 SW 13 19 7 10 1014.3 1014.3 0.2
22/08:30am 18.9 16.8 11.2 61 4.2 SSW 13 24 7 13 1014.1 - -
22/08:00am 18.4 17.0 12.1 66 3.5 SSW 11 17 6 9 1014.2 - -
22/07:38am 17.8 16.5 12.6 71 2.9 S 11 19 6 10 1014.2 - -
22/07:00am 16.0 16.2 13.1 83 1.6 S 4 7 2 4 1013.8 - 0.2
22/06:30am 15.3 14.9 13.1 87 1.2 SSE 7 13 4 7 1013.7 - 0.2
22/06:00am 14.4 14.1 12.8 90 0.9 E 6 7 3 4 1013.5 1013.5 0.2
22/05:30am 13.2 12.6 11.7 91 0.8 SSE 6 7 3 4 1013.3 - 0.2
22/05:00am 14.6 12.8 12.0 84 1.4 S 13 15 7 8 1013.0 - 0.2
22/04:30am 14.7 13.3 12.3 85 1.3 S 11 13 6 7 1012.7 - 0.2
22/04:00am 15.3 13.1 12.2 82 1.7 SSW 15 19 8 10 1012.6 - 0.2
22/03:30am 15.6 13.3 11.9 78 2.0 S 15 19 8 10 1012.4 - 0.2
22/03:00am 15.4 13.3 11.3 76 2.2 SSW 13 17 7 9 1012.4 1012.4 0.2
22/02:30am 16.2 14.1 11.2 72 2.7 SW 13 19 7 10 1012.3 - 0.2
22/02:00am 16.6 14.5 11.2 70 2.9 SSW 13 15 7 8 1012.3 - 0.2
22/01:30am 16.9 14.4 12.4 75 2.5 SSW 17 24 9 13 1012.4 - 0.2
22/01:00am 16.1 14.5 12.7 80 1.9 WSW 13 17 7 9 1012.5 - 0.2
22/12:30am 17.2 16.2 12.3 73 2.7 SW 9 13 5 7 1012.5 - 0.2
22/12:00am 17.1 16.1 12.4 74 2.6 WSW 9 13 5 7 1012.8 1012.8 0.2
 
Date/Time
WST
Temp
°C
App
Temp
°C
Dew
Point
Rel
Hum
%
Delta-T
°C
Wind Press
QNH
hPa
Press
MSL
hPa
Rain
since 9 am
mm
Dir
 
Spd
km/h
Gust
km/h
Spd
kts
Gust
kts
21/11:30pm 17.5 15.9 11.6 68 3.2 W 11 17 6 9 1013.0 - 0.2
21/11:00pm 17.5 14.7 11.4 67 3.3 SSW 17 26 9 14 1013.0 - 0.2
21/10:30pm 17.6 14.7 10.9 65 3.6 SW 17 20 9 11 1013.1 - 0.2
21/10:00pm 17.8 14.9 10.9 64 3.7 WSW 17 20 9 11 1013.3 - 0.2
21/09:30pm 18.0 14.9 11.6 66 3.5 SW 19 26 10 14 1013.4 - 0.2
21/09:00pm 17.7 15.8 12.9 73 2.7 SW 15 19 8 10 1013.2 1013.2 0.2
21/08:30pm 18.0 15.7 10.3 60 4.1 WSW 13 17 7 9 1012.9 - 0.2
21/08:00pm 18.1 15.4 10.2 60 4.2 SW 15 17 8 9 1012.8 - 0.2
21/07:30pm 18.2 14.9 9.7 57 4.5 SW 17 22 9 12 1012.6 - 0.2
21/07:00pm 18.6 15.3 9.7 56 4.7 WSW 17 20 9 11 1012.4 - 0.2
21/06:30pm 19.0 15.5 10.2 56 4.7 W 19 28 10 15 1012.3 - 0.2
21/06:00pm 19.6 16.1 10.1 54 5.1 W 19 28 10 15 1012.0 1012.0 0.2
21/05:30pm 19.9 15.9 10.3 54 5.2 WSW 22 32 12 17 1011.8 - 0.2
21/05:00pm 20.8 16.9 10.7 52 5.5 WSW 22 32 12 17 1011.8 - 0.2
21/04:30pm 20.4 16.1 10.7 53 5.3 WSW 24 35 13 19 1012.0 - 0.2
21/04:00pm 20.8 16.4 10.3 51 5.7 WSW 24 39 13 21 1012.1 - 0.2
21/03:30pm 21.5 16.3 10.3 49 6.1 WSW 28 39 15 21 1012.0 - 0.2
21/03:00pm 21.7 16.1 10.3 48 6.2 WSW 30 44 16 24 1012.0 1012.0 0.2
21/02:30pm 21.9 17.6 10.6 48 6.2 W 24 37 13 20 1011.9 - 0.2
21/02:07pm 21.8 16.9 11.2 51 5.9 WSW 28 46 15 25 1012.0 - 0.2
21/02:00pm 21.9 17.3 11.1 50 6.0 WSW 26 33 14 18 1012.0 - 0.2
21/01:30pm 22.1 18.0 11.5 51 5.9 WSW 24 35 13 19 1012.0 - 0.2
21/01:00pm 21.6 17.0 10.9 50 5.9 WSW 26 33 14 18 1012.2 - 0.2
21/12:30pm 21.1 15.7 10.9 52 5.6 W 30 35 16 19 1012.5 - 0.2

Other Formats:

Comma delimited format used in spreadsheet applications
http://www.bom.gov.au/fwo/IDW60801/IDW60801.94610.axf

JavaScript Object Notation format (JSON) in row-major order
http://www.bom.gov.au/fwo/IDW60801/IDW60801.94610.json